createdAt,value
2019-03-31T00:00:07.957Z,7.8
2019-03-31T00:02:09.388Z,7.3
2019-03-31T00:04:10.833Z,8.1
2019-03-31T00:06:12.287Z,8.1
2019-03-31T00:08:13.666Z,8.3
2019-03-31T00:10:14.971Z,7.8
2019-03-31T00:12:16.478Z,7.8
2019-03-31T00:14:17.826Z,7.7
2019-03-31T00:16:19.212Z,7.9
2019-03-31T00:18:20.582Z,8.6
2019-03-31T00:20:21.959Z,8.4
2019-03-31T00:22:23.222Z,9.6
2019-03-31T00:26:26.052Z,9.5
2019-03-31T00:28:27.408Z,10.1
2019-03-31T00:30:28.826Z,9.4
2019-03-31T00:32:30.174Z,10
2019-03-31T00:34:31.610Z,10.5
2019-03-31T00:36:33.029Z,9.4
2019-03-31T00:38:34.462Z,9.6
2019-03-31T00:40:35.816Z,9.7
2019-03-31T00:42:37.243Z,9.5
2019-03-31T00:44:38.670Z,9.1
2019-03-31T00:46:40.093Z,9.2
2019-03-31T00:48:41.494Z,10.2
2019-03-31T00:50:42.834Z,10.1
2019-03-31T00:52:44.270Z,9.7
2019-03-31T00:54:45.707Z,10
2019-03-31T00:56:47.058Z,10.3
2019-03-31T00:58:48.393Z,11.2
2019-03-31T01:00:49.829Z,10.3
2019-03-31T01:02:51.260Z,10.6
2019-03-31T01:04:52.599Z,10.8
2019-03-31T01:06:54.032Z,10.5
2019-03-31T01:08:55.466Z,10.7
2019-03-31T01:10:56.803Z,9.8
2019-03-31T01:12:58.219Z,10
2019-03-31T01:14:59.575Z,9.5
2019-03-31T01:17:01.017Z,10
2019-03-31T01:19:02.464Z,10.5
2019-03-31T01:21:03.874Z,10.6
2019-03-31T01:23:05.211Z,10
2019-03-31T01:25:06.628Z,11.1
2019-03-31T01:27:07.965Z,10.1
2019-03-31T01:29:09.395Z,10.7
2019-03-31T01:31:10.820Z,11.5
2019-03-31T01:33:12.271Z,11.6
2019-03-31T01:35:13.596Z,12.4
2019-03-31T01:37:15.028Z,14.4
2019-03-31T01:39:16.300Z,15
2019-03-31T01:41:17.692Z,16.9
2019-03-31T01:43:19.071Z,17.1
2019-03-31T01:45:20.457Z,19.3
2019-03-31T01:47:21.790Z,18.7
2019-03-31T01:49:23.124Z,20.5
2019-03-31T01:51:24.413Z,16.1
2019-03-31T01:53:25.794Z,13.5
2019-03-31T01:55:27.173Z,12.7
2019-03-31T01:57:28.527Z,12.2
2019-03-31T01:59:29.867Z,12.4
2019-03-31T02:01:31.299Z,11.9
2019-03-31T02:03:32.714Z,12
2019-03-31T02:05:34.068Z,12.8
2019-03-31T02:07:35.453Z,11.9
2019-03-31T02:09:36.887Z,12.8
2019-03-31T02:11:38.316Z,13.6
2019-03-31T02:13:39.711Z,12.9
2019-03-31T02:15:41.141Z,12.9
2019-03-31T02:17:42.565Z,12.1
2019-03-31T02:19:43.993Z,12.2
2019-03-31T02:21:45.323Z,12.6
2019-03-31T02:23:46.710Z,13.2
2019-03-31T02:25:48.130Z,13.2
2019-03-31T02:27:49.558Z,12.8
2019-03-31T02:29:50.891Z,14.2
2019-03-31T02:31:52.231Z,13.5
2019-03-31T02:33:53.661Z,13.2
2019-03-31T02:35:55.097Z,16
2019-03-31T02:37:56.523Z,14.6
2019-03-31T02:39:57.973Z,13.5
2019-03-31T02:41:59.354Z,13.7
2019-03-31T02:44:00.748Z,14.4
2019-03-31T02:46:02.112Z,14
2019-03-31T02:48:03.532Z,13.7
2019-03-31T02:50:04.869Z,14.5
2019-03-31T02:52:06.289Z,14.4
2019-03-31T02:54:07.637Z,14.2
2019-03-31T02:56:09.056Z,14.1
2019-03-31T02:58:10.485Z,14
2019-03-31T03:00:11.908Z,13.2
2019-03-31T03:02:13.337Z,14.3
2019-03-31T03:04:14.757Z,15.4
2019-03-31T03:06:16.200Z,14.5
2019-03-31T03:08:17.576Z,14.4
2019-03-31T03:10:18.862Z,15.7
2019-03-31T03:12:20.271Z,15
2019-03-31T03:14:21.609Z,15.4
2019-03-31T03:16:23.060Z,15.3
2019-03-31T03:18:24.483Z,16.1
2019-03-31T03:20:25.925Z,14.4
2019-03-31T03:22:27.333Z,15.3
2019-03-31T03:24:28.684Z,15.5
2019-03-31T03:26:30.083Z,14.8
2019-03-31T03:28:31.532Z,14.7
2019-03-31T03:30:32.902Z,15.3
2019-03-31T03:32:34.311Z,15.4
2019-03-31T03:34:35.743Z,14.8
2019-03-31T03:36:37.056Z,16.4
2019-03-31T03:38:38.439Z,16.1
2019-03-31T03:40:39.822Z,15
2019-03-31T03:42:41.383Z,15.9
2019-03-31T03:44:42.814Z,15.2
2019-03-31T03:46:44.161Z,15.7
2019-03-31T03:48:45.552Z,15.1
2019-03-31T03:50:46.980Z,16.2
2019-03-31T03:52:48.405Z,15.9
2019-03-31T03:54:49.733Z,16.9
2019-03-31T03:56:51.022Z,16.3
2019-03-31T03:58:52.385Z,16.7
2019-03-31T04:00:53.762Z,15.4
2019-03-31T04:02:55.200Z,16.1
2019-03-31T04:04:56.595Z,16.9
2019-03-31T04:06:57.977Z,16.6
2019-03-31T04:08:59.363Z,16
2019-03-31T04:11:00.790Z,16.4
2019-03-31T04:13:02.239Z,16.8
2019-03-31T04:15:03.650Z,17.4
2019-03-31T04:17:05.087Z,17.4
2019-03-31T04:19:06.488Z,17.1
2019-03-31T04:21:07.930Z,15.9
2019-03-31T04:23:09.371Z,16.4
2019-03-31T04:25:10.695Z,17
2019-03-31T04:27:12.122Z,16.4
2019-03-31T04:29:13.550Z,16.4
2019-03-31T04:31:14.985Z,15.7
2019-03-31T04:33:16.410Z,15.6
2019-03-31T04:35:17.832Z,16.4
2019-03-31T04:37:19.165Z,16.5
2019-03-31T04:39:20.524Z,15.4
2019-03-31T04:41:21.919Z,15.8
2019-03-31T04:43:23.330Z,16.5
2019-03-31T04:45:24.655Z,16.6
2019-03-31T04:47:26.033Z,15.8
2019-03-31T04:49:27.417Z,17.7
2019-03-31T04:51:28.814Z,16.8
2019-03-31T04:53:30.221Z,17
2019-03-31T04:55:31.554Z,16.1
2019-03-31T04:57:32.927Z,15.9
2019-03-31T04:59:34.259Z,15.6
2019-03-31T05:01:35.641Z,15
2019-03-31T05:03:37.072Z,15.1
2019-03-31T05:05:38.400Z,15.4
2019-03-31T05:07:39.904Z,14.7
2019-03-31T05:09:41.215Z,13.8
2019-03-31T05:11:42.554Z,15.6
2019-03-31T05:13:43.977Z,13.3
2019-03-31T05:15:45.311Z,15.4
2019-03-31T05:17:46.736Z,14.4
2019-03-31T05:19:48.258Z,16.3
2019-03-31T05:21:49.549Z,15.6
2019-03-31T05:23:50.967Z,14.6
2019-03-31T05:25:52.382Z,15
2019-03-31T05:27:53.808Z,14.8
2019-03-31T05:29:55.064Z,15
2019-03-31T05:31:56.450Z,16.2
2019-03-31T05:33:57.819Z,15.7
2019-03-31T05:35:59.244Z,14.9
2019-03-31T05:38:00.591Z,15
2019-03-31T05:40:01.854Z,13.8
2019-03-31T05:42:03.219Z,14.9
2019-03-31T05:44:06.176Z,14.3
2019-03-31T05:46:07.579Z,14
2019-03-31T05:48:08.914Z,13.1
2019-03-31T05:50:10.346Z,14.5
2019-03-31T05:52:11.748Z,14.1
2019-03-31T05:54:13.123Z,13.3
2019-03-31T05:56:14.546Z,12.5
2019-03-31T05:58:15.881Z,12.9
2019-03-31T06:00:17.278Z,11.5
2019-03-31T06:02:18.608Z,12.3
2019-03-31T06:04:33.639Z,13.3
2019-03-31T06:06:37.306Z,12.3
2019-03-31T06:08:38.712Z,13.5
2019-03-31T06:10:40.145Z,12.3
2019-03-31T06:12:41.538Z,12.9
2019-03-31T06:14:42.933Z,12
2019-03-31T06:16:44.353Z,13.3
2019-03-31T06:18:45.708Z,14
2019-03-31T06:20:47.142Z,13.9
2019-03-31T06:22:48.474Z,12.9
2019-03-31T06:24:49.809Z,16.5
2019-03-31T06:26:51.236Z,13.3
2019-03-31T06:28:52.571Z,14.6
2019-03-31T06:30:53.997Z,14.6
2019-03-31T06:32:55.748Z,14.5
2019-03-31T06:34:57.162Z,15.8
2019-03-31T06:36:58.591Z,14.8
2019-03-31T06:38:59.971Z,18.8
2019-03-31T06:41:01.366Z,16.9
2019-03-31T06:43:02.734Z,20
2019-03-31T06:45:04.145Z,19.3
2019-03-31T06:47:05.492Z,17.2
2019-03-31T06:49:06.867Z,16.6
2019-03-31T06:51:08.201Z,19.4
2019-03-31T06:53:09.537Z,19.4
2019-03-31T06:55:10.967Z,19.7
2019-03-31T06:57:12.389Z,20.5
2019-03-31T06:59:13.747Z,19.1
2019-03-31T07:01:14.996Z,17.2
2019-03-31T07:03:16.312Z,16.6
2019-03-31T07:05:17.696Z,16.1
2019-03-31T07:07:19.076Z,16.6
2019-03-31T07:09:20.488Z,17.8
2019-03-31T07:11:21.820Z,16
2019-03-31T07:13:23.183Z,15.9
2019-03-31T07:15:24.615Z,16.5
2019-03-31T07:17:25.955Z,19.7
2019-03-31T07:19:27.396Z,18
2019-03-31T07:21:28.822Z,21.6
2019-03-31T07:23:30.248Z,19
2019-03-31T07:25:31.681Z,18.9
2019-03-31T07:27:33.108Z,21.8
2019-03-31T07:29:34.564Z,21.6
2019-03-31T07:31:35.985Z,16
2019-03-31T07:33:37.402Z,17.6
2019-03-31T07:35:39.264Z,19.8
2019-03-31T07:37:47.812Z,21.3
2019-03-31T07:39:49.604Z,22.4
2019-03-31T07:41:51.180Z,22.5
2019-03-31T07:43:52.558Z,21.8
2019-03-31T07:45:56.123Z,20.9
2019-03-31T07:47:57.801Z,21.3
2019-03-31T07:49:59.183Z,19.7
2019-03-31T07:52:00.850Z,22.5
2019-03-31T07:54:02.235Z,22.2
2019-03-31T07:56:03.655Z,20.3
2019-03-31T07:58:05.148Z,21.9
2019-03-31T08:00:06.522Z,20.9
2019-03-31T08:02:07.955Z,21.6
2019-03-31T08:04:09.380Z,20.1
2019-03-31T08:06:10.803Z,21.7
2019-03-31T08:08:12.246Z,20
2019-03-31T08:10:13.629Z,20.9
2019-03-31T08:12:15.066Z,21
2019-03-31T08:14:16.501Z,18.1
2019-03-31T08:16:17.838Z,21.4
2019-03-31T08:18:19.178Z,20.6
2019-03-31T08:20:20.523Z,20.4
2019-03-31T08:22:21.976Z,18.9
2019-03-31T08:24:23.352Z,19.6
2019-03-31T08:26:24.732Z,20.6
2019-03-31T08:28:26.085Z,23.2
2019-03-31T08:30:27.519Z,18.7
2019-03-31T08:32:28.837Z,20
2019-03-31T08:34:30.276Z,21.8
2019-03-31T08:36:35.458Z,18.6
2019-03-31T08:38:36.990Z,19.7
2019-03-31T08:40:38.419Z,18.6
2019-03-31T08:42:39.868Z,18.9
2019-03-31T08:44:41.299Z,19.9
2019-03-31T08:46:42.727Z,24.8
2019-03-31T08:48:44.159Z,22.8
2019-03-31T08:50:45.543Z,21.7
2019-03-31T08:52:46.922Z,21.3
2019-03-31T08:54:48.305Z,22.4
2019-03-31T08:56:49.676Z,19.2
2019-03-31T08:58:51.070Z,22.7
2019-03-31T09:00:52.507Z,23
2019-03-31T09:02:53.942Z,23.7
2019-03-31T09:04:55.378Z,22.5
2019-03-31T09:06:56.814Z,23.2
2019-03-31T09:08:58.165Z,21.5
2019-03-31T09:10:59.561Z,22.1
2019-03-31T09:13:00.935Z,23
2019-03-31T09:15:02.321Z,22.6
2019-03-31T09:17:03.698Z,21.9
2019-03-31T09:19:05.071Z,23.2
2019-03-31T09:21:06.514Z,23
2019-03-31T09:23:07.854Z,24.3
2019-03-31T09:25:09.298Z,25.8
2019-03-31T09:27:10.733Z,27.2
2019-03-31T09:29:12.205Z,22.5
2019-03-31T09:31:13.624Z,27.4
2019-03-31T09:33:15.070Z,22.5
2019-03-31T09:35:16.502Z,22.6
2019-03-31T09:37:17.939Z,26.4
2019-03-31T09:39:19.291Z,30.1
2019-03-31T09:41:20.689Z,28.6
2019-03-31T09:43:22.025Z,24.9
2019-03-31T09:45:23.367Z,31.3
2019-03-31T09:47:24.807Z,26.4
2019-03-31T09:49:26.152Z,26.3
2019-03-31T09:51:27.576Z,35.2
2019-03-31T09:53:29.022Z,35.7
2019-03-31T09:55:30.398Z,30.7
2019-03-31T09:57:31.807Z,37.6
2019-03-31T09:59:33.204Z,31.5
2019-03-31T10:01:34.509Z,36.9
2019-03-31T10:03:35.865Z,30.5
2019-03-31T10:05:37.261Z,34.1
2019-03-31T10:07:38.657Z,36.2
2019-03-31T10:09:40.026Z,40.8
2019-03-31T10:11:41.384Z,34.9
2019-03-31T10:13:42.791Z,35
2019-03-31T10:15:44.147Z,35.6
2019-03-31T10:17:45.583Z,38.4
2019-03-31T10:19:47.001Z,38.4
2019-03-31T10:21:48.328Z,35.8
2019-03-31T10:23:49.700Z,40.4
2019-03-31T10:25:51.193Z,39.4
2019-03-31T10:27:52.588Z,36.7
2019-03-31T10:29:54.030Z,37.4
2019-03-31T10:31:55.476Z,37.9
2019-03-31T10:33:56.923Z,42
2019-03-31T10:35:58.360Z,34.3
2019-03-31T10:37:59.806Z,37.4
2019-03-31T10:40:01.203Z,39.6
2019-03-31T10:42:02.546Z,36.6
2019-03-31T10:44:03.943Z,44.3
2019-03-31T10:46:05.329Z,35.2
2019-03-31T10:48:21.264Z,37.8
2019-03-31T10:50:22.761Z,36.2
2019-03-31T10:52:24.106Z,36.2
2019-03-31T10:54:25.560Z,38.1
2019-03-31T10:56:26.985Z,36.8
2019-03-31T10:58:28.428Z,36.4
2019-03-31T11:00:29.866Z,36.5
2019-03-31T11:02:31.168Z,37.2
2019-03-31T11:04:32.512Z,38.8
2019-03-31T11:06:33.970Z,43.4
2019-03-31T11:08:35.397Z,36.2
2019-03-31T11:10:36.790Z,37.7
2019-03-31T11:12:38.180Z,36.5
2019-03-31T11:14:39.622Z,35.7
2019-03-31T11:16:41.063Z,37.4
2019-03-31T11:18:42.423Z,38.6
2019-03-31T11:20:43.680Z,36.8
2019-03-31T11:22:45.033Z,37.6
2019-03-31T11:24:46.458Z,40.6
2019-03-31T11:26:47.832Z,39.6
2019-03-31T11:28:49.097Z,38
2019-03-31T11:30:50.537Z,36.9
2019-03-31T11:32:51.994Z,40.6
2019-03-31T11:34:53.367Z,40.6
2019-03-31T11:36:54.696Z,40
2019-03-31T11:38:56.081Z,37.3
2019-03-31T11:40:57.529Z,39.2
2019-03-31T11:42:58.960Z,40.1
2019-03-31T11:45:00.506Z,36.4
2019-03-31T11:47:01.970Z,39.7
2019-03-31T11:49:03.403Z,38.8
2019-03-31T11:51:04.857Z,37.5
2019-03-31T11:53:06.220Z,38.4
2019-03-31T11:55:07.576Z,39.4
2019-03-31T11:57:09.025Z,41.3
2019-03-31T11:59:10.470Z,37.6
2019-03-31T12:01:11.826Z,37.1
2019-03-31T12:03:13.269Z,36.8
2019-03-31T12:05:14.619Z,38.6
2019-03-31T12:07:28.567Z,37.7
2019-03-31T12:09:30.074Z,35.8
2019-03-31T12:11:31.425Z,37
2019-03-31T12:13:32.868Z,39.3
2019-03-31T12:15:34.313Z,35.5
2019-03-31T12:17:35.588Z,39.3
2019-03-31T12:19:37.027Z,36.6
2019-03-31T12:21:38.449Z,36.9
2019-03-31T12:23:39.790Z,36
2019-03-31T12:25:41.197Z,41.8
2019-03-31T12:27:42.566Z,38.8
2019-03-31T12:29:43.951Z,35.2
2019-03-31T12:31:45.300Z,37.8
2019-03-31T12:33:46.719Z,35.4
2019-03-31T12:35:48.062Z,36.7
2019-03-31T12:37:49.387Z,35.4
2019-03-31T12:39:50.895Z,35
2019-03-31T12:41:52.199Z,33.9
2019-03-31T12:43:53.580Z,34.4
2019-03-31T12:45:54.933Z,34
2019-03-31T12:47:56.371Z,36.8
2019-03-31T12:49:57.728Z,29.8
2019-03-31T12:51:59.102Z,32.7
2019-03-31T12:54:00.542Z,31.8
2019-03-31T12:56:01.868Z,36.1
2019-03-31T12:58:03.223Z,33.4
2019-03-31T13:00:04.642Z,36.5
2019-03-31T13:02:06.021Z,30.7
2019-03-31T13:04:07.387Z,32.4
2019-03-31T13:06:08.731Z,30.5
2019-03-31T13:08:10.157Z,30.2
2019-03-31T13:10:11.538Z,34.8
2019-03-31T13:12:12.941Z,34.3
2019-03-31T13:14:14.331Z,33.3
2019-03-31T13:16:15.734Z,31.4
2019-03-31T13:18:17.115Z,32.8
2019-03-31T13:20:18.478Z,31
2019-03-31T13:22:19.826Z,32.6
2019-03-31T13:24:21.188Z,32.8
2019-03-31T13:26:22.623Z,37.7
2019-03-31T13:28:23.971Z,37.2
2019-03-31T13:30:25.428Z,36.9
2019-03-31T13:32:26.875Z,35.3
2019-03-31T13:34:28.321Z,40.2
2019-03-31T13:36:29.696Z,41.4
2019-03-31T13:38:31.144Z,42.4
2019-03-31T13:40:32.513Z,43
2019-03-31T13:42:33.959Z,39.2
2019-03-31T13:44:35.405Z,37.9
2019-03-31T13:46:36.750Z,38.9
2019-03-31T13:48:38.103Z,38.4
2019-03-31T13:50:39.569Z,36.5
2019-03-31T13:52:41.018Z,37.2
2019-03-31T13:54:42.411Z,33.7
2019-03-31T13:56:49.823Z,35.6
2019-03-31T13:58:52.955Z,35.8
2019-03-31T14:00:57.544Z,34.6
2019-03-31T14:02:59.038Z,33.2
2019-03-31T14:05:00.480Z,34.3
2019-03-31T14:07:04.642Z,34.5
2019-03-31T14:09:06.087Z,37
2019-03-31T14:11:07.521Z,35.6
2019-03-31T14:13:08.928Z,36
2019-03-31T14:15:19.823Z,35.8
2019-03-31T14:17:24.684Z,35.6
2019-03-31T14:19:26.072Z,44
2019-03-31T14:21:27.449Z,40.2
2019-03-31T14:23:28.789Z,36.7
2019-03-31T14:25:30.234Z,35.5
2019-03-31T14:27:31.501Z,36.7
2019-03-31T14:29:32.907Z,42.9
2019-03-31T14:31:34.192Z,38.6
2019-03-31T14:33:35.555Z,38.4
2019-03-31T14:35:38.451Z,37.4
2019-03-31T14:37:39.910Z,34.3
2019-03-31T14:39:41.323Z,38.8
2019-03-31T14:41:49.711Z,40.5
2019-03-31T14:43:51.075Z,37.1
2019-03-31T14:45:52.518Z,33.8
2019-03-31T14:47:53.954Z,34.2
2019-03-31T14:49:55.374Z,37.2
2019-03-31T14:51:56.804Z,36.9
2019-03-31T14:53:58.207Z,34.2
2019-03-31T14:55:59.567Z,35.6
2019-03-31T14:58:00.943Z,33.7
2019-03-31T15:00:15.398Z,36.2
2019-03-31T15:02:16.851Z,34.8
2019-03-31T15:04:18.238Z,36.3
2019-03-31T15:06:19.591Z,35.7
2019-03-31T15:08:20.871Z,34.2
2019-03-31T15:10:22.254Z,33.5
2019-03-31T15:12:23.635Z,32.7
2019-03-31T15:14:24.998Z,32.1
2019-03-31T15:16:26.399Z,32.2
2019-03-31T15:18:27.665Z,33
2019-03-31T15:20:28.966Z,33.9
2019-03-31T15:22:30.379Z,34.1
2019-03-31T15:24:31.808Z,30.9
2019-03-31T15:26:33.204Z,28.7
2019-03-31T15:28:34.626Z,30.3
2019-03-31T15:30:35.975Z,28.5
2019-03-31T15:32:37.238Z,31.5
2019-03-31T15:34:38.585Z,30.9
2019-03-31T15:36:40.042Z,27.8
2019-03-31T15:38:41.492Z,29.1
2019-03-31T15:40:42.810Z,28.2
2019-03-31T15:42:44.268Z,28.5
2019-03-31T15:44:45.705Z,28.9
2019-03-31T15:46:47.125Z,29
2019-03-31T15:48:48.515Z,25.8
2019-03-31T15:50:49.890Z,26.1
2019-03-31T15:52:51.311Z,24.6
2019-03-31T15:54:52.668Z,25.3
2019-03-31T15:56:54.045Z,24.9
2019-03-31T15:58:55.401Z,25.2
2019-03-31T16:00:56.811Z,24.4
2019-03-31T16:02:58.192Z,23.8
2019-03-31T16:04:59.570Z,22.6
2019-03-31T16:07:00.999Z,22.2
2019-03-31T16:09:02.437Z,22.3
2019-03-31T16:11:05.091Z,22.4
2019-03-31T16:13:06.529Z,21.3
2019-03-31T16:15:07.784Z,21.6
2019-03-31T16:17:09.232Z,21.8
2019-03-31T16:19:10.707Z,21.7
2019-03-31T16:21:12.113Z,20.7
2019-03-31T16:23:13.560Z,20.5
2019-03-31T16:25:15.104Z,21.1
2019-03-31T16:27:16.537Z,21.8
2019-03-31T16:29:17.883Z,22.8
2019-03-31T16:31:19.235Z,20.5
2019-03-31T16:33:20.669Z,20.8
2019-03-31T16:35:22.027Z,21.1
2019-03-31T16:37:23.465Z,20.5
2019-03-31T16:39:38.171Z,20.5
2019-03-31T16:41:39.711Z,20.7
2019-03-31T16:43:41.138Z,19.8
2019-03-31T16:45:42.491Z,21
2019-03-31T16:47:43.921Z,19.3
2019-03-31T16:49:45.213Z,21.6
2019-03-31T16:51:46.644Z,19.9
2019-03-31T16:53:47.997Z,16.9
2019-03-31T16:55:49.437Z,21.4
2019-03-31T16:57:50.885Z,20.1
2019-03-31T16:59:52.264Z,21
2019-03-31T17:01:53.622Z,19.6
2019-03-31T17:03:54.927Z,20.2
2019-03-31T17:05:56.373Z,18.5
2019-03-31T17:07:57.781Z,21.3
2019-03-31T17:09:59.165Z,20.3
2019-03-31T17:12:00.541Z,20.1
2019-03-31T17:14:01.982Z,20.2
2019-03-31T17:16:03.429Z,20
2019-03-31T17:18:04.871Z,19.6
2019-03-31T17:20:06.339Z,18.7
2019-03-31T17:22:07.737Z,20.4
2019-03-31T17:24:09.163Z,20.4
2019-03-31T17:26:10.504Z,20.4
2019-03-31T17:28:11.859Z,19.9
2019-03-31T17:30:13.293Z,20.4
2019-03-31T17:32:14.632Z,19.8
2019-03-31T17:34:15.976Z,19.9
2019-03-31T17:36:17.358Z,20.6
2019-03-31T17:38:18.621Z,21
2019-03-31T17:40:20.063Z,20.1
2019-03-31T17:42:21.475Z,20.2
2019-03-31T17:44:22.839Z,21.2
2019-03-31T17:46:24.237Z,22.4
2019-03-31T17:48:25.605Z,20.9
2019-03-31T17:50:26.958Z,19.7
2019-03-31T17:52:28.400Z,21.5
2019-03-31T17:54:29.838Z,20.7
2019-03-31T17:56:31.279Z,20
2019-03-31T17:58:32.621Z,19.4
2019-03-31T18:00:34.069Z,20.3
2019-03-31T18:02:35.590Z,20.4
2019-03-31T18:04:38.616Z,21.2
2019-03-31T18:06:39.917Z,23
2019-03-31T18:08:42.851Z,22.5
2019-03-31T18:10:44.281Z,21.2
2019-03-31T18:12:45.717Z,20.1
2019-03-31T18:14:46.969Z,19.8
2019-03-31T18:16:48.287Z,19.6
2019-03-31T18:18:49.664Z,18.5
2019-03-31T18:20:51.063Z,18.9
2019-03-31T18:22:52.481Z,17.9
2019-03-31T18:24:53.818Z,17
2019-03-31T18:26:55.249Z,17.8
2019-03-31T18:28:56.718Z,17
2019-03-31T18:30:58.119Z,19.7
2019-03-31T18:32:59.458Z,17.2
2019-03-31T18:35:00.859Z,15.8
2019-03-31T18:37:02.254Z,28
2019-03-31T18:39:03.676Z,18.5
2019-03-31T18:41:05.067Z,17.7
2019-03-31T18:43:06.470Z,16
2019-03-31T18:45:07.889Z,15.9
2019-03-31T18:47:09.232Z,17.1
2019-03-31T18:49:10.607Z,15.9
2019-03-31T18:51:12.032Z,16.1
2019-03-31T18:53:13.444Z,17.1
2019-03-31T18:55:14.870Z,14.4
2019-03-31T18:57:16.288Z,13.4
2019-03-31T18:59:17.715Z,14.9
2019-03-31T19:01:19.053Z,15.3
2019-03-31T19:03:20.390Z,15.8
2019-03-31T19:05:24.743Z,19.5
2019-03-31T19:07:26.087Z,14.8
2019-03-31T19:09:27.511Z,17
2019-03-31T19:11:28.769Z,14.4
2019-03-31T19:13:30.019Z,16.2
2019-03-31T19:15:31.418Z,14.6
2019-03-31T19:17:32.766Z,13
2019-03-31T19:19:34.046Z,13.2
2019-03-31T19:21:35.477Z,13.1
2019-03-31T19:23:36.816Z,12.4
2019-03-31T19:25:38.237Z,12.6
2019-03-31T19:27:39.631Z,12.2
2019-03-31T19:29:41.013Z,13
2019-03-31T19:31:42.387Z,12.1
2019-03-31T19:33:43.732Z,12.8
2019-03-31T19:35:45.197Z,11.7
2019-03-31T19:37:46.610Z,11.9
2019-03-31T19:39:47.959Z,12.1
2019-03-31T19:41:49.276Z,12.5
2019-03-31T19:43:50.696Z,12.3
2019-03-31T19:45:51.964Z,13.2
2019-03-31T19:47:53.319Z,14.2
2019-03-31T19:49:54.657Z,13.6
2019-03-31T19:51:55.992Z,13.4
2019-03-31T19:53:57.322Z,15.4
2019-03-31T19:56:08.068Z,14
2019-03-31T19:58:09.451Z,14.3
2019-03-31T20:00:10.796Z,14.2
2019-03-31T20:02:12.228Z,15.4
2019-03-31T20:04:13.618Z,14.5
2019-03-31T20:06:15.042Z,14.9
2019-03-31T20:08:16.488Z,16.6
2019-03-31T20:10:17.926Z,18.4
2019-03-31T20:12:19.349Z,14.8
2019-03-31T20:14:20.721Z,15.6
2019-03-31T20:16:22.017Z,15.2
2019-03-31T20:18:23.358Z,15.8
2019-03-31T20:20:24.799Z,17.1
2019-03-31T20:22:26.228Z,14.9
2019-03-31T20:24:27.567Z,16.5
2019-03-31T20:26:28.905Z,16
2019-03-31T20:28:30.241Z,18.1
2019-03-31T20:30:31.531Z,18.1
2019-03-31T20:32:32.782Z,15.5
2019-03-31T20:34:34.148Z,15.8
2019-03-31T20:36:35.484Z,17.3
2019-03-31T20:38:36.889Z,17.9
2019-03-31T20:40:38.222Z,16
2019-03-31T20:42:39.559Z,17.2
2019-03-31T20:44:40.994Z,15.8
2019-03-31T20:46:42.400Z,20.1
2019-03-31T20:48:43.770Z,16.9
2019-03-31T20:50:45.107Z,16.9
2019-03-31T20:52:46.643Z,16.5
2019-03-31T20:54:48.070Z,15.9
2019-03-31T20:56:49.530Z,18.1
2019-03-31T20:58:50.947Z,16.3
2019-03-31T21:00:52.381Z,18.1
2019-03-31T21:02:53.719Z,15.8
2019-03-31T21:04:55.155Z,16.8
2019-03-31T21:06:56.589Z,16.8
2019-03-31T21:08:57.916Z,18.7
2019-03-31T21:10:59.208Z,16
2019-03-31T21:13:00.505Z,18.7
2019-03-31T21:15:01.937Z,17.6
2019-03-31T21:17:03.355Z,16.2
2019-03-31T21:19:04.741Z,16
2019-03-31T21:21:06.114Z,16.3
2019-03-31T21:23:07.450Z,16.8
2019-03-31T21:25:08.867Z,18.3
2019-03-31T21:27:10.206Z,17
2019-03-31T21:29:11.626Z,17.1
2019-03-31T21:31:13.053Z,18
2019-03-31T21:33:14.460Z,16.5
2019-03-31T21:35:15.789Z,16.9
2019-03-31T21:37:17.144Z,16.3
2019-03-31T21:39:18.570Z,15.2
2019-03-31T21:41:20.001Z,15.1
2019-03-31T21:43:21.430Z,16.1
2019-03-31T21:45:22.862Z,17.2
2019-03-31T21:47:24.289Z,14.9
2019-03-31T21:49:25.801Z,15
2019-03-31T21:51:27.234Z,17.3
2019-03-31T21:53:28.603Z,17.2
2019-03-31T21:55:30.028Z,15.8
2019-03-31T21:57:31.397Z,14.8
2019-03-31T21:59:33.785Z,16.8
2019-03-31T22:01:35.170Z,17.2
2019-03-31T22:03:36.445Z,16.9
2019-03-31T22:05:38.091Z,16.4
2019-03-31T22:07:39.502Z,14.9
2019-03-31T22:09:40.850Z,15.5
2019-03-31T22:11:42.285Z,14.1
2019-03-31T22:13:43.649Z,15.7
2019-03-31T22:15:44.953Z,15.1
2019-03-31T22:17:46.379Z,14.9
2019-03-31T22:19:47.648Z,13.4
2019-03-31T22:21:49.015Z,14.8
2019-03-31T22:23:58.308Z,14.1
2019-03-31T22:25:59.760Z,14.3
2019-03-31T22:28:01.097Z,14
2019-03-31T22:30:02.533Z,12.9
2019-03-31T22:32:03.887Z,14.2
2019-03-31T22:34:05.311Z,15
2019-03-31T22:36:06.639Z,14.1
2019-03-31T22:38:07.972Z,12.4
2019-03-31T22:40:09.335Z,14.5
2019-03-31T22:42:10.759Z,14.2
2019-03-31T22:44:12.163Z,14.5
2019-03-31T22:46:13.524Z,13.9
2019-03-31T22:48:14.962Z,14.3
2019-03-31T22:50:16.389Z,14.6
2019-03-31T22:52:17.716Z,14.4
2019-03-31T22:54:19.050Z,14
2019-03-31T22:56:20.461Z,14.3
2019-03-31T22:58:21.882Z,13.3
2019-03-31T23:00:23.315Z,14.7
2019-03-31T23:02:24.654Z,13.1
2019-03-31T23:04:26.086Z,13.3
2019-03-31T23:06:27.518Z,13
2019-03-31T23:08:28.945Z,12.9
2019-03-31T23:10:30.348Z,13
2019-03-31T23:12:31.656Z,13.6
2019-03-31T23:14:33.076Z,13.9
2019-03-31T23:16:34.512Z,13.3
2019-03-31T23:18:35.913Z,13.3
2019-03-31T23:20:37.327Z,12.8
2019-03-31T23:22:38.689Z,12.3
2019-03-31T23:24:40.064Z,12.9
2019-03-31T23:26:41.485Z,13.6
2019-03-31T23:28:42.729Z,13.6
2019-03-31T23:32:45.440Z,12.9
2019-03-31T23:34:46.758Z,13.7
2019-03-31T23:36:48.094Z,12.9
2019-03-31T23:38:49.520Z,12.9
2019-03-31T23:40:50.854Z,12.9
2019-03-31T23:42:52.277Z,13.3
2019-03-31T23:44:53.671Z,12.2
2019-03-31T23:46:55.096Z,12.7
2019-03-31T23:48:56.526Z,13.1
2019-03-31T23:50:57.949Z,13.3
2019-03-31T23:52:59.216Z,12.9
2019-03-31T23:55:00.589Z,12.8
2019-03-31T23:57:01.985Z,12.2
2019-03-31T23:59:03.367Z,12.6
